createdAt,value
2023-05-13T00:00:49.115Z,9.15
2023-05-13T00:03:17.428Z,9.13
2023-05-13T00:05:45.946Z,9.16
2023-05-13T00:08:14.174Z,9.23
2023-05-13T00:10:42.408Z,9.14
2023-05-13T00:13:10.799Z,9.11
2023-05-13T00:15:40.345Z,9.08
2023-05-13T00:18:10.017Z,9.06
2023-05-13T00:20:38.135Z,8.96
2023-05-13T00:23:07.784Z,8.87
2023-05-13T00:25:35.852Z,8.82
2023-05-13T00:28:04.317Z,8.78
2023-05-13T00:30:34.985Z,8.71
2023-05-13T00:33:03.212Z,8.70
2023-05-13T00:35:33.007Z,8.67
2023-05-13T00:38:01.622Z,8.66
2023-05-13T00:40:31.604Z,8.59
2023-05-13T00:43:00.228Z,8.55
2023-05-13T00:45:29.482Z,8.50
2023-05-13T00:47:58.032Z,8.48
2023-05-13T00:50:26.268Z,8.46
2023-05-13T00:52:58.734Z,8.48
2023-05-13T00:55:33.499Z,8.52
2023-05-13T00:58:01.826Z,8.58
2023-05-13T01:00:31.846Z,8.58
2023-05-13T01:03:06.938Z,8.58
2023-05-13T01:05:47.232Z,8.64
2023-05-13T01:08:25.510Z,8.66
2023-05-13T01:10:58.779Z,8.60
2023-05-13T01:13:30.201Z,8.59
2023-05-13T01:16:06.588Z,8.53
2023-05-13T01:18:39.382Z,8.52
2023-05-13T01:21:09.504Z,8.51
2023-05-13T01:23:39.224Z,8.50
2023-05-13T01:26:08.995Z,8.52
2023-05-13T01:28:38.176Z,8.51
2023-05-13T01:31:11.826Z,8.51
2023-05-13T01:33:41.909Z,8.53
2023-05-13T01:36:11.139Z,8.57
2023-05-13T01:38:43.591Z,8.58
2023-05-13T01:41:15.815Z,8.64
2023-05-13T01:43:47.468Z,8.72
2023-05-13T01:46:16.759Z,8.75
2023-05-13T01:48:45.167Z,8.71
2023-05-13T01:51:14.111Z,8.64
2023-05-13T01:53:43.734Z,8.63
2023-05-13T01:56:12.335Z,8.71
2023-05-13T01:58:42.062Z,8.63
2023-05-13T02:01:10.319Z,8.62
2023-05-13T02:03:38.904Z,8.53
2023-05-13T02:06:07.528Z,8.45
2023-05-13T02:08:36.474Z,8.40
2023-05-13T02:11:07.217Z,8.40
2023-05-13T02:13:35.198Z,8.33
2023-05-13T02:16:03.826Z,8.39
2023-05-13T02:18:34.510Z,8.43
2023-05-13T02:21:03.692Z,8.44
2023-05-13T02:23:31.905Z,8.46
2023-05-13T02:26:00.187Z,8.46
2023-05-13T02:28:30.868Z,8.43
2023-05-13T02:31:01.480Z,8.43
2023-05-13T02:33:31.045Z,8.38
2023-05-13T02:35:59.637Z,8.37
2023-05-13T02:38:27.976Z,8.42
2023-05-13T02:40:56.694Z,8.39
2023-05-13T02:43:27.933Z,8.39
2023-05-13T02:46:05.043Z,8.40
2023-05-13T02:48:36.307Z,8.49
2023-05-13T02:51:04.947Z,8.54
2023-05-13T02:53:33.711Z,8.65
2023-05-13T02:56:06.607Z,8.65
2023-05-13T02:58:36.720Z,8.64
2023-05-13T03:01:07.049Z,8.61
2023-05-13T03:03:35.346Z,8.57
2023-05-13T03:06:04.927Z,8.57
2023-05-13T03:08:33.749Z,8.49
2023-05-13T03:11:02.748Z,8.45
2023-05-13T03:13:31.056Z,8.42
2023-05-13T03:16:00.029Z,8.36
2023-05-13T03:18:31.716Z,8.36
2023-05-13T03:21:02.151Z,8.32
2023-05-13T03:23:30.413Z,8.28
2023-05-13T03:26:03.581Z,8.26
2023-05-13T03:28:33.195Z,8.23
2023-05-13T03:31:03.458Z,8.20
2023-05-13T03:33:36.098Z,8.13
2023-05-13T03:36:05.224Z,8.10
2023-05-13T03:38:34.039Z,8.13
2023-05-13T03:41:02.826Z,8.12
2023-05-13T03:43:32.508Z,8.11
2023-05-13T03:46:03.778Z,8.11
2023-05-13T03:48:32.630Z,8.13
2023-05-13T03:51:04.946Z,8.08
2023-05-13T03:53:33.648Z,8.04
2023-05-13T03:56:03.793Z,8.07
2023-05-13T03:58:32.223Z,8.10
2023-05-13T04:01:00.851Z,7.95
2023-05-13T04:03:29.205Z,7.97
2023-05-13T04:05:57.545Z,8.03
2023-05-13T04:08:27.593Z,8.04
2023-05-13T04:10:57.122Z,8.09
2023-05-13T04:13:29.241Z,8.17
2023-05-13T04:15:58.091Z,8.26
2023-05-13T04:18:29.315Z,8.33
2023-05-13T04:20:57.631Z,8.45
2023-05-13T04:23:28.888Z,8.59
2023-05-13T04:25:58.653Z,8.60
2023-05-13T04:28:27.589Z,8.67
2023-05-13T04:30:55.969Z,8.84
2023-05-13T04:33:24.524Z,8.96
2023-05-13T04:35:53.195Z,9.09
2023-05-13T04:38:21.693Z,9.27
2023-05-13T04:40:51.477Z,9.38
2023-05-13T04:43:24.993Z,9.57
2023-05-13T04:45:57.288Z,9.69
2023-05-13T04:48:27.850Z,9.84
2023-05-13T04:50:57.146Z,10.04
2023-05-13T04:53:27.296Z,10.20
2023-05-13T04:56:01.172Z,10.28
2023-05-13T04:58:31.654Z,10.36
2023-05-13T05:00:59.794Z,10.46
2023-05-13T05:03:28.357Z,10.49
2023-05-13T05:05:56.683Z,10.53
2023-05-13T05:08:26.592Z,10.50
2023-05-13T05:10:54.759Z,10.56
2023-05-13T05:13:24.517Z,10.53
2023-05-13T05:16:03.494Z,10.59
2023-05-13T05:18:33.459Z,10.63
2023-05-13T05:21:04.105Z,10.63
2023-05-13T05:23:34.607Z,10.66
2023-05-13T05:26:12.042Z,10.69
2023-05-13T05:28:59.387Z,10.72
2023-05-13T05:31:28.452Z,10.78
2023-05-13T05:34:02.573Z,10.82
2023-05-13T05:36:34.668Z,10.88
2023-05-13T05:39:08.096Z,10.90
2023-05-13T05:41:42.285Z,10.93
2023-05-13T05:44:13.440Z,11.09
2023-05-13T05:46:42.802Z,11.18
2023-05-13T05:49:11.474Z,11.18
2023-05-13T05:51:41.793Z,11.31
2023-05-13T05:54:09.964Z,11.46
2023-05-13T05:56:39.044Z,11.60
2023-05-13T05:59:07.478Z,11.91
2023-05-13T06:01:38.998Z,12.11
2023-05-13T06:04:08.054Z,12.39
2023-05-13T06:06:36.896Z,12.67
2023-05-13T06:09:08.434Z,13.14
2023-05-13T06:11:36.485Z,13.42
2023-05-13T06:14:05.111Z,13.79
2023-05-13T06:16:33.631Z,14.06
2023-05-13T06:19:04.690Z,14.31
2023-05-13T06:21:34.599Z,14.61
2023-05-13T06:24:04.452Z,15.07
2023-05-13T06:26:33.804Z,15.47
2023-05-13T06:29:02.013Z,15.42
2023-05-13T06:31:30.216Z,15.60
2023-05-13T06:33:59.016Z,15.61
2023-05-13T06:36:28.753Z,15.76
2023-05-13T06:38:57.194Z,15.87
2023-05-13T06:41:26.484Z,15.89
2023-05-13T06:43:58.866Z,15.44
2023-05-13T06:46:30.255Z,15.44
2023-05-13T06:48:58.863Z,15.84
2023-05-13T06:51:28.971Z,16.05
2023-05-13T06:53:57.398Z,15.73
2023-05-13T06:56:27.851Z,15.72
2023-05-13T06:58:56.471Z,15.79
2023-05-13T07:01:25.321Z,16.28
2023-05-13T07:03:54.816Z,16.51
2023-05-13T07:06:23.484Z,16.69
2023-05-13T07:08:53.623Z,17.19
2023-05-13T07:11:22.474Z,17.29
2023-05-13T07:13:51.034Z,17.63
2023-05-13T07:16:19.809Z,18.26
2023-05-13T07:18:48.451Z,18.85
2023-05-13T07:21:16.902Z,18.94
2023-05-13T07:23:44.985Z,19.36
2023-05-13T07:26:15.864Z,19.46
2023-05-13T07:28:45.177Z,19.33
2023-05-13T07:31:14.427Z,19.44
2023-05-13T07:33:43.278Z,19.46
2023-05-13T07:36:11.701Z,18.74
2023-05-13T07:38:39.831Z,19.21
2023-05-13T07:41:08.063Z,19.58
2023-05-13T07:43:40.787Z,19.57
2023-05-13T07:46:09.449Z,20.12
2023-05-13T07:48:39.196Z,20.40
2023-05-13T07:51:07.412Z,20.26
2023-05-13T07:53:36.850Z,20.40
2023-05-13T07:56:05.773Z,19.67
2023-05-13T07:58:33.883Z,18.68
2023-05-13T08:01:04.438Z,18.62
2023-05-13T08:03:33.027Z,18.21
2023-05-13T08:06:01.424Z,18.16
2023-05-13T08:08:29.751Z,17.89
2023-05-13T08:10:58.811Z,17.59
2023-05-13T08:13:27.045Z,17.61
2023-05-13T08:15:56.179Z,17.68
2023-05-13T08:18:25.991Z,17.92
2023-05-13T08:20:55.138Z,18.53
2023-05-13T08:23:36.898Z,19.13
2023-05-13T08:26:12.592Z,19.65
2023-05-13T08:28:41.947Z,20.34
2023-05-13T08:31:12.619Z,20.88
2023-05-13T08:33:46.143Z,19.85
2023-05-13T08:36:14.536Z,19.99
2023-05-13T08:38:43.665Z,19.76
2023-05-13T08:41:28.452Z,18.98
2023-05-13T08:43:58.914Z,19.66
2023-05-13T08:46:29.413Z,20.22
2023-05-13T08:49:05.299Z,19.87
2023-05-13T08:51:49.819Z,19.39
2023-05-13T08:54:18.865Z,20.13
2023-05-13T08:56:47.525Z,19.55
2023-05-13T08:59:15.966Z,19.80
2023-05-13T09:01:45.344Z,20.10
2023-05-13T09:04:17.998Z,19.27
2023-05-13T09:06:48.316Z,20.18
2023-05-13T09:09:16.888Z,21.16
2023-05-13T09:11:48.679Z,21.42
2023-05-13T09:14:21.219Z,21.92
2023-05-13T09:16:49.498Z,20.88
2023-05-13T09:19:19.134Z,21.24
2023-05-13T09:21:47.542Z,21.30
2023-05-13T09:24:18.731Z,21.68
2023-05-13T09:26:47.547Z,21.39
2023-05-13T09:29:21.307Z,21.93
2023-05-13T09:31:51.712Z,22.44
2023-05-13T09:34:39.783Z,22.70
2023-05-13T09:37:10.293Z,22.13
2023-05-13T09:39:41.891Z,22.38
2023-05-13T09:42:16.491Z,22.21
2023-05-13T09:44:45.785Z,22.79
2023-05-13T09:47:15.529Z,22.53
2023-05-13T09:49:47.006Z,21.36
2023-05-13T09:52:18.696Z,21.82
2023-05-13T09:54:47.152Z,22.21
2023-05-13T09:57:16.275Z,22.36
2023-05-13T09:59:45.014Z,23.30
2023-05-13T10:02:16.384Z,23.72
2023-05-13T10:04:47.386Z,23.48
2023-05-13T10:07:16.162Z,23.66
2023-05-13T10:10:10.874Z,23.07
2023-05-13T10:12:41.200Z,22.26
2023-05-13T10:15:11.210Z,22.64
2023-05-13T10:17:40.818Z,22.90
2023-05-13T10:20:10.989Z,21.56
2023-05-13T10:22:40.306Z,21.65
2023-05-13T10:25:09.371Z,22.05
2023-05-13T10:27:39.484Z,22.75
2023-05-13T10:30:10.349Z,24.02
2023-05-13T10:32:40.285Z,24.42
2023-05-13T10:35:58.794Z,23.94
2023-05-13T10:38:44.666Z,23.58
2023-05-13T10:41:28.356Z,22.32
2023-05-13T10:43:59.333Z,21.99
2023-05-13T10:46:27.577Z,21.36
2023-05-13T10:49:00.081Z,20.76
2023-05-13T10:51:28.859Z,20.86
2023-05-13T10:53:59.306Z,20.89
2023-05-13T10:56:29.657Z,20.86
2023-05-13T10:59:02.433Z,21.44
2023-05-13T11:01:32.645Z,21.17
2023-05-13T11:04:02.908Z,21.03
2023-05-13T11:06:35.274Z,22.39
2023-05-13T11:09:08.517Z,21.51
2023-05-13T11:11:38.540Z,22.51
2023-05-13T11:14:16.764Z,23.01
2023-05-13T11:16:53.119Z,22.98
2023-05-13T11:19:24.712Z,22.28
2023-05-13T11:21:55.076Z,22.54
2023-05-13T11:24:25.734Z,21.41
2023-05-13T11:26:57.447Z,21.25
2023-05-13T11:29:31.328Z,21.08
2023-05-13T11:32:01.115Z,20.12
2023-05-13T11:34:30.188Z,20.81
2023-05-13T11:37:09.650Z,21.11
2023-05-13T11:39:41.661Z,21.48
2023-05-13T11:42:12.888Z,22.77
2023-05-13T11:44:47.976Z,22.53
2023-05-13T11:47:27.167Z,23.19
2023-05-13T11:49:56.402Z,23.83
2023-05-13T11:52:29.272Z,23.99
2023-05-13T11:55:01.004Z,23.47
2023-05-13T11:57:29.397Z,22.60
2023-05-13T11:59:58.962Z,24.15
2023-05-13T12:02:28.206Z,24.46
2023-05-13T12:04:56.683Z,23.81
2023-05-13T12:07:26.907Z,24.48
2023-05-13T12:09:58.296Z,23.25
2023-05-13T12:12:30.155Z,23.73
2023-05-13T12:15:01.141Z,22.73
2023-05-13T12:17:29.851Z,22.24
2023-05-13T12:20:10.293Z,23.69
2023-05-13T12:22:39.600Z,23.77
2023-05-13T12:25:33.781Z,23.89
2023-05-13T12:28:10.264Z,22.75
2023-05-13T12:30:42.952Z,22.32
2023-05-13T12:33:15.590Z,22.68
2023-05-13T12:35:45.105Z,22.07
2023-05-13T12:38:15.799Z,22.29
2023-05-13T12:40:43.972Z,22.66
2023-05-13T12:43:14.116Z,22.31
2023-05-13T12:45:45.243Z,22.62
2023-05-13T12:48:14.428Z,21.90
2023-05-13T12:50:42.803Z,21.60
2023-05-13T12:53:11.267Z,20.61
2023-05-13T12:55:40.325Z,20.35
2023-05-13T12:58:49.812Z,20.13
2023-05-13T13:01:18.267Z,20.15
2023-05-13T13:03:47.676Z,20.11
2023-05-13T13:06:16.521Z,20.15
2023-05-13T13:08:45.117Z,20.32
2023-05-13T13:11:18.526Z,20.52
2023-05-13T13:13:50.831Z,20.42
2023-05-13T13:16:19.829Z,20.46
2023-05-13T13:18:50.578Z,20.46
2023-05-13T13:21:20.760Z,20.47
2023-05-13T13:23:49.286Z,20.32
2023-05-13T13:26:17.761Z,20.34
2023-05-13T13:28:46.012Z,20.17
2023-05-13T13:31:15.903Z,19.65
2023-05-13T13:33:44.130Z,19.66
2023-05-13T13:36:12.536Z,19.44
2023-05-13T13:38:40.755Z,19.31
2023-05-13T13:41:09.006Z,19.37
2023-05-13T13:43:37.613Z,19.67
2023-05-13T13:46:06.552Z,19.75
2023-05-13T13:48:37.498Z,20.28
2023-05-13T13:51:06.553Z,21.41
2023-05-13T13:53:35.087Z,21.95
2023-05-13T13:56:04.531Z,20.87
2023-05-13T13:58:32.515Z,20.33
2023-05-13T14:01:01.037Z,19.95
2023-05-13T14:03:29.355Z,19.88
2023-05-13T14:05:59.286Z,19.65
2023-05-13T14:08:28.265Z,19.30
2023-05-13T14:10:58.170Z,18.93
2023-05-13T14:13:26.227Z,18.98
2023-05-13T14:15:54.808Z,18.81
2023-05-13T14:18:23.281Z,18.76
2023-05-13T14:20:53.133Z,18.89
2023-05-13T14:23:22.992Z,18.75
2023-05-13T14:25:51.491Z,18.79
2023-05-13T14:28:19.983Z,19.01
2023-05-13T14:30:48.477Z,19.02
2023-05-13T14:33:16.679Z,18.82
2023-05-13T14:35:45.227Z,19.35
2023-05-13T14:38:13.487Z,19.65
2023-05-13T14:40:43.305Z,20.00
2023-05-13T14:43:12.440Z,20.44
2023-05-13T14:45:40.523Z,20.84
2023-05-13T14:48:08.618Z,20.16
2023-05-13T14:50:37.542Z,19.66
2023-05-13T14:53:06.245Z,19.45
2023-05-13T14:55:35.075Z,19.52
2023-05-13T14:58:07.293Z,19.57
2023-05-13T15:00:37.745Z,19.84
2023-05-13T15:03:06.408Z,19.89
2023-05-13T15:05:35.331Z,20.15
2023-05-13T15:08:03.891Z,20.37
2023-05-13T15:10:32.374Z,20.96
2023-05-13T15:13:01.405Z,21.93
2023-05-13T15:15:32.158Z,22.58
2023-05-13T15:18:00.710Z,22.03
2023-05-13T15:20:29.788Z,22.32
2023-05-13T15:22:57.983Z,22.53
2023-05-13T15:25:26.152Z,22.68
2023-05-13T15:27:55.609Z,22.54
2023-05-13T15:30:24.117Z,22.62
2023-05-13T15:32:55.177Z,22.81
2023-05-13T15:35:23.511Z,23.08
2023-05-13T15:37:51.802Z,22.70
2023-05-13T15:40:21.340Z,22.08
2023-05-13T15:42:49.782Z,21.53
2023-05-13T15:45:18.549Z,21.44
2023-05-13T15:47:48.551Z,21.42
2023-05-13T15:50:19.354Z,21.17
2023-05-13T15:52:48.098Z,20.89
2023-05-13T15:55:16.363Z,20.21
2023-05-13T15:57:44.540Z,20.16
2023-05-13T16:00:15.134Z,19.42
2023-05-13T16:02:44.240Z,19.18
2023-05-13T16:05:15.289Z,19.19
2023-05-13T16:07:46.006Z,18.77
2023-05-13T16:10:15.219Z,18.64
2023-05-13T16:12:43.757Z,18.50
2023-05-13T16:15:12.851Z,18.81
2023-05-13T16:17:41.462Z,18.52
2023-05-13T16:20:11.849Z,18.50
2023-05-13T16:22:40.767Z,18.56
2023-05-13T16:25:14.093Z,18.28
2023-05-13T16:27:43.050Z,18.21
2023-05-13T16:30:13.088Z,18.01
2023-05-13T16:32:41.604Z,18.04
2023-05-13T16:35:11.713Z,18.30
2023-05-13T16:37:40.594Z,17.99
2023-05-13T16:40:11.731Z,18.33
2023-05-13T16:42:40.079Z,18.33
2023-05-13T16:45:09.389Z,18.48
2023-05-13T16:47:38.066Z,18.50
2023-05-13T16:50:08.681Z,18.68
2023-05-13T16:52:37.025Z,18.60
2023-05-13T16:55:06.186Z,18.66
2023-05-13T16:57:35.790Z,18.41
2023-05-13T17:00:03.915Z,18.79
2023-05-13T17:02:32.534Z,18.86
2023-05-13T17:05:01.214Z,18.99
2023-05-13T17:07:29.644Z,18.95
2023-05-13T17:09:58.570Z,18.74
2023-05-13T17:12:27.887Z,18.54
2023-05-13T17:14:57.788Z,18.59
2023-05-13T17:17:26.227Z,18.92
2023-05-13T17:19:54.705Z,18.82
2023-05-13T17:22:24.449Z,18.92
2023-05-13T17:24:52.599Z,18.90
2023-05-13T17:27:21.633Z,19.06
2023-05-13T17:29:50.206Z,18.64
2023-05-13T17:32:22.576Z,18.38
2023-05-13T17:34:50.753Z,18.36
2023-05-13T17:37:19.253Z,18.43
2023-05-13T17:39:50.215Z,18.29
2023-05-13T17:42:19.446Z,18.09
2023-05-13T17:44:47.655Z,17.86
2023-05-13T17:47:15.895Z,17.95
2023-05-13T17:49:45.383Z,17.84
2023-05-13T17:52:13.508Z,17.66
2023-05-13T17:54:41.749Z,17.40
2023-05-13T17:57:11.124Z,17.44
2023-05-13T17:59:39.995Z,17.46
2023-05-13T18:02:09.320Z,17.42
2023-05-13T18:04:37.622Z,17.34
2023-05-13T18:07:09.198Z,17.35
2023-05-13T18:09:37.936Z,17.27
2023-05-13T18:12:07.240Z,17.14
2023-05-13T18:14:35.453Z,17.04
2023-05-13T18:17:03.733Z,17.04
2023-05-13T18:19:32.451Z,16.98
2023-05-13T18:22:00.893Z,16.93
2023-05-13T18:24:32.482Z,16.90
2023-05-13T18:27:00.770Z,16.85
2023-05-13T18:29:28.996Z,16.76
2023-05-13T18:31:58.301Z,16.70
2023-05-13T18:34:26.895Z,16.69
2023-05-13T18:36:57.405Z,16.69
2023-05-13T18:39:25.651Z,16.63
2023-05-13T18:41:55.326Z,16.66
2023-05-13T18:44:24.316Z,16.52
2023-05-13T18:46:52.907Z,16.40
2023-05-13T18:49:21.547Z,16.29
2023-05-13T18:51:49.661Z,16.20
2023-05-13T18:54:17.814Z,16.14
2023-05-13T18:56:46.139Z,16.06
2023-05-13T18:59:16.522Z,16.01
2023-05-13T19:01:45.285Z,15.93
2023-05-13T19:04:15.340Z,15.92
2023-05-13T19:06:43.832Z,15.82
2023-05-13T19:09:11.963Z,15.75
2023-05-13T19:11:42.549Z,15.67
2023-05-13T19:14:10.868Z,15.58
2023-05-13T19:16:42.002Z,15.59
2023-05-13T19:19:10.329Z,15.46
2023-05-13T19:21:39.074Z,15.40
2023-05-13T19:24:07.607Z,15.40
2023-05-13T19:26:37.267Z,15.34
2023-05-13T19:29:05.957Z,15.35
2023-05-13T19:31:34.615Z,15.25
2023-05-13T19:34:05.001Z,15.20
2023-05-13T19:36:52.709Z,15.21
2023-05-13T19:39:28.506Z,15.17
2023-05-13T19:41:57.343Z,15.12
2023-05-13T19:44:28.381Z,15.07
2023-05-13T19:47:03.864Z,15.00
2023-05-13T19:49:37.681Z,15.04
2023-05-13T19:52:07.778Z,14.97
2023-05-13T19:54:46.896Z,14.94
2023-05-13T19:57:15.079Z,14.90
2023-05-13T19:59:47.216Z,14.84
2023-05-13T20:02:18.192Z,14.78
2023-05-13T20:04:47.723Z,14.74
2023-05-13T20:07:16.407Z,14.70
2023-05-13T20:09:46.187Z,14.67
2023-05-13T20:12:21.328Z,14.65
2023-05-13T20:14:55.587Z,14.60
2023-05-13T20:17:26.009Z,14.59
2023-05-13T20:19:59.423Z,14.57
2023-05-13T20:22:27.679Z,14.56
2023-05-13T20:24:56.085Z,14.55
2023-05-13T20:27:27.050Z,14.56
2023-05-13T20:29:57.289Z,14.52
2023-05-13T20:32:29.128Z,14.47
2023-05-13T20:34:58.691Z,14.43
2023-05-13T20:37:28.797Z,14.41
2023-05-13T20:39:57.348Z,14.34
2023-05-13T20:42:28.097Z,14.31
2023-05-13T20:44:56.276Z,14.25
2023-05-13T20:50:17.682Z,14.21
2023-05-13T20:52:50.761Z,14.14
2023-05-13T20:55:24.957Z,14.11
2023-05-13T20:57:56.655Z,14.05
2023-05-13T21:00:25.442Z,13.95
2023-05-13T21:04:01.084Z,13.82
2023-05-13T21:06:42.773Z,13.64
2023-05-13T21:09:14.378Z,13.52
2023-05-13T21:11:43.689Z,13.40
2023-05-13T21:14:14.778Z,13.26
2023-05-13T21:16:49.630Z,13.13
2023-05-13T21:19:22.145Z,13.00
2023-05-13T21:21:52.072Z,12.83
2023-05-13T21:24:20.889Z,12.76
2023-05-13T21:26:50.134Z,12.65
2023-05-13T21:29:18.999Z,12.57
2023-05-13T21:31:48.331Z,12.51
2023-05-13T21:35:33.103Z,12.46
2023-05-13T21:38:31.357Z,12.31
2023-05-13T21:41:00.800Z,12.22
2023-05-13T21:43:29.765Z,12.13
2023-05-13T21:45:58.318Z,12.08
2023-05-13T21:48:27.045Z,12.04
2023-05-13T21:50:55.097Z,11.98
2023-05-13T21:53:23.525Z,11.95
2023-05-13T21:55:55.715Z,11.94
2023-05-13T21:58:27.465Z,11.93
2023-05-13T22:00:56.637Z,11.88
2023-05-13T22:03:25.029Z,11.84
2023-05-13T22:06:03.805Z,11.85
2023-05-13T22:08:36.538Z,11.81
2023-05-13T22:11:08.704Z,11.80
2023-05-13T22:13:36.685Z,11.80
2023-05-13T22:16:07.274Z,11.72
2023-05-13T22:18:37.913Z,11.69
2023-05-13T22:21:15.959Z,11.70
2023-05-13T22:23:44.642Z,11.59
2023-05-13T22:26:22.050Z,11.44
2023-05-13T22:28:52.834Z,11.33
2023-05-13T22:31:21.136Z,11.25
2023-05-13T22:33:52.303Z,11.13
2023-05-13T22:36:20.962Z,11.06
2023-05-13T22:38:52.293Z,10.97
2023-05-13T22:41:27.342Z,10.92
2023-05-13T22:43:58.851Z,10.86
2023-05-13T22:46:33.244Z,10.85
2023-05-13T22:49:07.008Z,10.86
2023-05-13T22:51:35.208Z,10.94
2023-05-13T22:54:16.663Z,11.10
2023-05-13T22:56:46.421Z,11.26
2023-05-13T22:59:23.706Z,11.45
2023-05-13T23:01:55.013Z,11.46
2023-05-13T23:04:27.612Z,11.46
2023-05-13T23:06:59.862Z,11.52
2023-05-13T23:09:28.024Z,11.61
2023-05-13T23:12:00.473Z,11.66
2023-05-13T23:14:30.177Z,11.72
2023-05-13T23:17:03.541Z,11.70
2023-05-13T23:19:49.257Z,11.70
2023-05-13T23:22:19.854Z,11.69
2023-05-13T23:24:48.067Z,11.64
2023-05-13T23:27:20.853Z,11.60
2023-05-13T23:29:49.330Z,11.54
2023-05-13T23:32:19.056Z,11.55
2023-05-13T23:34:47.312Z,11.57
2023-05-13T23:37:17.652Z,11.62
2023-05-13T23:39:47.794Z,11.66
2023-05-13T23:42:19.819Z,11.70
2023-05-13T23:44:48.884Z,11.73
2023-05-13T23:47:21.405Z,11.79
2023-05-13T23:49:49.679Z,11.80
2023-05-13T23:52:21.726Z,11.82
2023-05-13T23:54:58.070Z,11.87
2023-05-13T23:57:27.713Z,11.92
